SWA3939 KSAN-KCOS
Flight info
| Callsign | SWA3939 |
|---|---|
| Flight time | N/A |
| Altitude | 39000 |
| Route | ZZOOO4 MTBAL LANCY J78 DRK DEXTR RESER ALS DBRY5 |
| Aircraft | B737/M-SDE2E3GIJ4RWZ/LB1D1 |
Departure
| Time | N/A |
|---|---|
| Airport | San Diego International Airport (KSAN) |
Arrival
| Time | 2026-04-21 21:14 |
|---|---|
| Airport | City of Colorado Springs Municipal Airport (KCOS) |
| Time | Latitude | Longitude | Altitude | Speed | Heading |
|---|---|---|---|---|---|
| 2026-04-21 21:03 | 38.58561 | -104.58508 | 16543 ft | 371 kts | 8° |
| 2026-04-21 21:03 | 38.61096 | -104.57931 | 15857 ft | 371 kts | 8° |
| 2026-04-21 21:04 | 38.63629 | -104.57355 | 15321 ft | 368 kts | 8° |
| 2026-04-21 21:04 | 38.66146 | -104.56783 | 14678 ft | 368 kts | 8° |
| 2026-04-21 21:04 | 38.68666 | -104.56209 | 14246 ft | 367 kts | 9° |
| 2026-04-21 21:04 | 38.71143 | -104.55644 | 14060 ft | 355 kts | 9° |
| 2026-04-21 21:05 | 38.73540 | -104.55097 | 13861 ft | 343 kts | 9° |
| 2026-04-21 21:05 | 38.75848 | -104.54569 | 13698 ft | 331 kts | 9° |
| 2026-04-21 21:05 | 38.78075 | -104.54061 | 13555 ft | 319 kts | 9° |
| 2026-04-21 21:05 | 38.80224 | -104.53569 | 13413 ft | 307 kts | 9° |
| 2026-04-21 21:06 | 38.82289 | -104.53097 | 13326 ft | 296 kts | 9° |
| 2026-04-21 21:06 | 38.84263 | -104.52645 | 13221 ft | 286 kts | 9° |
| 2026-04-21 21:06 | 38.86212 | -104.52199 | 13119 ft | 276 kts | 10° |
| 2026-04-21 21:06 | 38.88060 | -104.51825 | 13010 ft | 269 kts | 3° |
| 2026-04-21 21:07 | 38.89921 | -104.51783 | 12848 ft | 269 kts | 359° |
| 2026-04-21 21:07 | 38.91826 | -104.51822 | 12552 ft | 275 kts | 359° |
| 2026-04-21 21:07 | 38.93737 | -104.51852 | 12282 ft | 275 kts | 359° |
| 2026-04-21 21:07 | 38.95637 | -104.52073 | 12043 ft | 273 kts | 347° |
| 2026-04-21 21:08 | 38.97423 | -104.52891 | 11753 ft | 273 kts | 329° |
| 2026-04-21 21:08 | 38.98934 | -104.54325 | 11486 ft | 269 kts | 312° |
| 2026-04-21 21:08 | 39.00068 | -104.56204 | 11180 ft | 265 kts | 298° |
| 2026-04-21 21:08 | 39.00782 | -104.58351 | 10817 ft | 258 kts | 281° |
| 2026-04-21 21:09 | 39.00970 | -104.60584 | 10512 ft | 248 kts | 264° |
| 2026-04-21 21:09 | 39.00685 | -104.62706 | 9906 ft | 235 kts | 248° |
| 2026-04-21 21:09 | 39.00021 | -104.64549 | 9635 ft | 221 kts | 233° |
| 2026-04-21 21:09 | 38.99089 | -104.66048 | 9386 ft | 210 kts | 220° |
| 2026-04-21 21:10 | 38.97972 | -104.67204 | 9159 ft | 204 kts | 210° |
| 2026-04-21 21:10 | 38.96717 | -104.68024 | 8880 ft | 201 kts | 198° |
| 2026-04-21 21:10 | 38.95388 | -104.68469 | 8634 ft | 195 kts | 187° |
| 2026-04-21 21:10 | 38.94124 | -104.68571 | 8414 ft | 182 kts | 179° |
| 2026-04-21 21:11 | 38.92864 | -104.68567 | 8177 ft | 167 kts | 180° |
| 2026-04-21 21:11 | 38.91788 | -104.68564 | 7968 ft | 153 kts | 179° |
| 2026-04-21 21:11 | 38.90771 | -104.68564 | 7797 ft | 142 kts | 181° |
| 2026-04-21 21:11 | 38.89760 | -104.68573 | 7635 ft | 145 kts | 179° |
| 2026-04-21 21:12 | 38.88740 | -104.68573 | 7456 ft | 149 kts | 178° |
| 2026-04-21 21:12 | 38.87697 | -104.68567 | 7254 ft | 153 kts | 178° |
| 2026-04-21 21:12 | 38.86637 | -104.68578 | 6932 ft | 150 kts | 178° |
| 2026-04-21 21:12 | 38.85593 | -104.68574 | 6768 ft | 148 kts | 178° |
| 2026-04-21 21:13 | 38.84591 | -104.68571 | 6609 ft | 145 kts | 179° |
| 2026-04-21 21:13 | 38.83553 | -104.68580 | 6445 ft | 151 kts | 178° |
| 2026-04-21 21:13 | 38.82497 | -104.68582 | 6310 ft | 150 kts | 176° |
| 2026-04-21 21:13 | 38.81458 | -104.68574 | 6185 ft | 148 kts | 178° |
| 2026-04-21 21:14 | 38.80562 | -104.68576 | 6155 ft | 100 kts | 180° |
| 2026-04-21 21:14 | 38.80161 | -104.68589 | 6149 ft | 16 kts | 223° |
| 2026-04-21 21:14 | 38.80217 | -104.68687 | 6149 ft | 15 kts | 329° |
| 2026-04-21 21:14 | 38.80286 | -104.68776 | 6151 ft | 15 kts | 266° |
| 2026-04-21 21:15 | 38.80277 | -104.68902 | 6150 ft | 14 kts | 268° |
| 2026-04-21 21:15 | 38.80278 | -104.69023 | 6150 ft | 13 kts | 270° |
| 2026-04-21 21:15 | 38.80279 | -104.69139 | 6150 ft | 13 kts | 270° |
| 2026-04-21 21:15 | 38.80279 | -104.69252 | 6150 ft | 13 kts | 270° |
| 2026-04-21 21:16 | 38.80278 | -104.69361 | 6150 ft | 12 kts | 270° |
| 2026-04-21 21:16 | 38.80279 | -104.69484 | 6150 ft | 14 kts | 270° |
| 2026-04-21 21:16 | 38.80279 | -104.69609 | 6150 ft | 14 kts | 270° |
| 2026-04-21 21:16 | 38.80280 | -104.69728 | 6150 ft | 13 kts | 270° |
| 2026-04-21 21:17 | 38.80280 | -104.69843 | 6150 ft | 13 kts | 270° |
| 2026-04-21 21:17 | 38.80281 | -104.69955 | 6150 ft | 12 kts | 270° |
| 2026-04-21 21:17 | 38.80276 | -104.70063 | 6150 ft | 12 kts | 243° |
| 2026-04-21 21:17 | 38.80199 | -104.70086 | 6149 ft | 12 kts | 179° |
| 2026-04-21 21:18 | 38.80119 | -104.70085 | 6148 ft | 11 kts | 179° |
| 2026-04-21 21:18 | 38.80053 | -104.70131 | 6146 ft | 11 kts | 199° |
| 2026-04-21 21:18 | 38.80004 | -104.70125 | 6145 ft | 1 kts | 171° |
| 2026-04-21 21:18 | 38.79996 | -104.70124 | 6145 ft | 0 kts | 171° |